Terminal Aerodrome Forecast
Issued by NWS Brownsville, TX

Home | Current Version | Previous Version | Text Only | Print | Product List | Glossary On
Versions: 1 2 3 4 5 6 7 8 9 10 11 12 13 14 15 16 17 18 19 20 21 22 23
176
FTUS44 KBRO 032325
TAFBRO
TAF
KBRO 032325Z 0400/0424 17010KT P6SM FEW027 SCT035
     FM040600 21006KT P6SM OVC007
     FM040900 27007KT 5SM BR OVC007
     FM041200 28011KT 6SM -RA OVC015
     FM041500 35010KT P6SM OVC015 PROB30 0421/0424 P6SM TS BKN015CB=

USA.gov is the U.S. government's official web portal to all federal, state and local government web resources and services.